Terminal Aerodrome Forecast
Issued by NWS Twin Cities, MN

Home | Current Version | Previous Version | Graphics & Text | Print | Product List | Glossary On
Versions: 1 2 3 4 5 6 7 8 9 10 11 12 13 14 15 16 17
000
FTUS43 KMPX 231614 AAB
TAFSTC
TAF AMD
KSTC 231614Z 2316/2412 13011G18KT P6SM -SHRA SCT020 BKN050 OVC080
      TEMPO 2316/2318 3SM TSRA SCT015 BKN035CB OVC050
     FM231900 15012KT P6SM BKN050
     FM232300 15010KT 2SM TSRA SCT020 BKN040CB
     FM240030 19009KT P6SM SCT050 BKN100
     FM240700 26007KT P6SM SKC=

USA.gov is the U.S. government's official web portal to all federal, state and local government web resources and services.